Time;durP1;ratioP1;P1;durP2;ratioP2;P2;SDS_P1;SDS_P2;PMS_P1;PMS_P2;Temp;Humidity;BMP_temperature;BMP_pressure;BME280_temperature;BME280_humidity;BME280_pressure;Samples;Min_cycle;Max_cycle;Signal;HPM_P1;HPM_P2
2022/03/04 00:01:19;;;;;;;17.40;8.68;;;3.40;99.90;;;;;;5072033;28;20445;-80
2022/03/04 00:03:45;;;;;;;16.30;7.93;;;3.40;99.90;;;;;;5056967;28;20069;-81
2022/03/04 00:06:11;;;;;;;14.48;7.57;;;3.30;99.90;;;;;;5073981;28;20406;-80
2022/03/04 00:08:36;;;;;;;15.65;7.22;;;3.30;99.80;;;;;;5074000;28;20036;-79
2022/03/04 00:11:02;;;;;;;14.50;7.70;;;3.30;99.90;;;;;;5073726;28;20417;-80
2022/03/04 00:13:32;;;;;;;15.82;8.13;;;3.20;99.90;;;;;;5073468;28;20032;-80
2022/03/04 00:15:58;;;;;;;16.63;8.00;;;3.20;99.90;;;;;;5074173;28;20086;-80
2022/03/04 00:18:24;;;;;;;18.42;8.23;;;3.20;99.90;;;;;;5057216;28;20436;-80
2022/03/04 00:20:50;;;;;;;16.65;8.07;;;3.20;99.90;;;;;;5068349;28;20052;-76
2022/03/04 00:23:16;;;;;;;18.65;9.57;;;3.20;99.90;;;;;;5058556;28;20036;-80
2022/03/04 00:25:41;;;;;;;15.35;8.38;;;3.20;99.90;;;;;;5037580;28;20052;-80
2022/03/04 00:28:07;;;;;;;16.98;8.45;;;3.10;99.90;;;;;;5054081;28;20453;-79
2022/03/04 00:30:33;;;;;;;17.40;9.27;;;3.10;99.90;;;;;;5054409;28;20033;-80
2022/03/04 00:32:58;;;;;;;17.05;9.35;;;3.00;99.90;;;;;;5035614;28;20448;-80
2022/03/04 00:35:24;;;;;;;15.75;9.05;;;3.00;99.90;;;;;;5052385;28;20040;-80
2022/03/04 00:37:51;;;;;;;17.30;9.90;;;3.00;99.90;;;;;;5055168;28;20045;-80
2022/03/04 00:40:17;;;;;;;18.48;10.90;;;3.00;99.90;;;;;;5053309;28;20131;-80
2022/03/04 00:42:43;;;;;;;20.05;11.00;;;3.00;99.90;;;;;;5036251;28;20103;-80
2022/03/04 00:45:09;;;;;;;17.83;9.65;;;2.90;99.90;;;;;;5036576;28;20073;-81
2022/03/04 00:47:34;;;;;;;20.63;10.07;;;2.90;99.90;;;;;;5053229;28;20037;-81
2022/03/04 00:50:01;;;;;;;16.70;9.80;;;2.90;99.90;;;;;;5036531;28;20075;-81
2022/03/04 00:52:27;;;;;;;20.80;11.80;;;2.90;99.90;;;;;;5052995;28;20041;-81
2022/03/04 00:54:53;;;;;;;17.70;9.93;;;2.80;99.90;;;;;;5036705;28;20471;-81
2022/03/04 00:57:19;;;;;;;22.80;11.68;;;2.80;99.90;;;;;;5036560;28;20497;-80
2022/03/04 00:59:45;;;;;;;17.00;9.93;;;2.80;99.90;;;;;;5052971;28;20040;-80
2022/03/04 01:02:11;;;;;;;19.10;10.55;;;2.80;99.90;;;;;;5035811;28;20456;-81
2022/03/04 01:04:36;;;;;;;18.50;10.38;;;2.70;99.90;;;;;;5036291;28;20446;-80
2022/03/04 01:07:02;;;;;;;17.10;9.77;;;2.70;99.90;;;;;;5036299;28;20045;-80
2022/03/04 01:09:28;;;;;;;15.20;9.27;;;2.70;99.90;;;;;;5036146;28;20040;-80
2022/03/04 01:11:53;;;;;;;17.88;10.20;;;2.70;99.90;;;;;;5051867;28;20072;-80
2022/03/04 01:14:19;;;;;;;17.30;10.25;;;2.60;99.90;;;;;;5036033;28;20482;-80
2022/03/04 01:16:44;;;;;;;19.38;9.02;;;2.60;99.90;;;;;;5053148;28;20413;-80
2022/03/04 01:19:10;;;;;;;15.50;8.77;;;2.60;99.90;;;;;;5052524;28;20521;-80
2022/03/04 01:21:36;;;;;;;18.25;9.85;;;2.60;99.90;;;;;;5052205;28;20045;-80
2022/03/04 01:24:02;;;;;;;17.15;8.80;;;2.50;99.90;;;;;;5052432;28;20049;-80
2022/03/04 01:26:28;;;;;;;17.73;9.20;;;2.50;99.90;;;;;;5052315;28;20052;-80
2022/03/04 01:28:53;;;;;;;17.90;9.02;;;2.50;99.90;;;;;;5052791;28;20043;-80
2022/03/04 01:31:19;;;;;;;18.77;9.10;;;2.50;99.90;;;;;;5035692;28;20509;-80
2022/03/04 01:33:44;;;;;;;16.38;8.55;;;2.50;99.90;;;;;;5052088;28;20044;-80
2022/03/04 01:36:10;;;;;;;19.95;9.60;;;2.40;99.90;;;;;;5052204;28;20067;-80
2022/03/04 01:38:36;;;;;;;17.52;8.57;;;2.40;99.90;;;;;;5052268;28;20043;-80
2022/03/04 01:41:02;;;;;;;16.17;9.05;;;2.40;99.90;;;;;;5053291;28;20047;-80
2022/03/04 01:43:28;;;;;;;17.77;8.95;;;2.40;99.90;;;;;;5035293;28;20045;-80
2022/03/04 01:45:53;;;;;;;18.08;8.80;;;2.30;99.90;;;;;;5052136;28;20060;-80
2022/03/04 01:48:21;;;;;;;17.60;8.75;;;2.30;99.90;;;;;;5052090;28;20090;-80
2022/03/04 01:50:51;;;;;;;21.40;10.23;;;2.30;99.90;;;;;;5035695;28;20041;-80
2022/03/04 01:53:18;;;;;;;17.98;9.80;;;2.30;99.90;;;;;;5051561;28;20051;-80
2022/03/04 01:55:44;;;;;;;19.08;10.27;;;2.20;99.90;;;;;;5051915;28;20124;-80
2022/03/04 01:58:09;;;;;;;19.52;11.43;;;2.20;99.90;;;;;;5051999;28;20124;-80
2022/03/04 02:00:35;;;;;;;20.65;11.18;;;2.20;99.90;;;;;;5051887;28;20056;-80
2022/03/04 02:03:01;;;;;;;20.20;11.27;;;2.20;99.90;;;;;;5051182;28;20037;-80
2022/03/04 02:05:27;;;;;;;22.52;12.90;;;2.10;99.90;;;;;;5051908;28;20048;-80
2022/03/04 02:07:54;;;;;;;20.75;11.77;;;2.10;99.90;;;;;;5051569;28;20043;-80
2022/03/04 02:10:19;;;;;;;21.05;11.85;;;2.10;99.90;;;;;;5051495;28;20037;-80
2022/03/04 02:12:45;;;;;;;19.40;11.13;;;2.10;99.90;;;;;;5051282;28;20040;-80
2022/03/04 02:15:11;;;;;;;18.85;9.55;;;2.10;99.90;;;;;;5035301;28;20449;-80
2022/03/04 02:17:37;;;;;;;20.10;10.98;;;2.10;99.90;;;;;;5051612;28;20041;-80
2022/03/04 02:20:05;;;;;;;19.20;10.52;;;2.00;99.90;;;;;;5051405;28;20120;-80
2022/03/04 02:22:31;;;;;;;19.52;10.18;;;2.00;99.90;;;;;;5051028;28;20124;-80
2022/03/04 02:24:57;;;;;;;21.58;10.05;;;1.90;99.90;;;;;;5050255;28;20052;-80
2022/03/04 02:27:23;;;;;;;21.10;9.68;;;1.90;99.90;;;;;;5051387;28;20032;-80
2022/03/04 02:29:48;;;;;;;19.40;10.10;;;1.90;99.90;;;;;;5034993;28;20037;-80
2022/03/04 02:32:14;;;;;;;21.00;10.82;;;1.90;99.90;;;;;;5050732;28;20047;-80
2022/03/04 02:34:40;;;;;;;19.33;10.27;;;1.90;99.90;;;;;;5034513;28;20106;-80
2022/03/04 02:37:06;;;;;;;24.27;10.55;;;1.90;99.90;;;;;;5051032;28;20136;-80
2022/03/04 02:39:32;;;;;;;19.80;10.18;;;1.80;99.90;;;;;;5034766;28;20037;-80
2022/03/04 02:41:57;;;;;;;19.73;10.10;;;1.80;99.90;;;;;;5050795;28;20036;-80
2022/03/04 02:44:23;;;;;;;23.33;11.57;;;1.80;99.90;;;;;;5034779;28;20072;-80
2022/03/04 02:46:49;;;;;;;22.92;10.25;;;1.80;99.90;;;;;;5050883;28;20490;-80
2022/03/04 02:49:14;;;;;;;22.33;10.88;;;1.70;99.90;;;;;;5050993;28;20534;-80
2022/03/04 02:51:40;;;;;;;19.98;9.88;;;1.70;99.90;;;;;;5050646;28;20083;-80
2022/03/04 02:54:06;;;;;;;21.77;10.30;;;1.70;99.90;;;;;;5051062;28;20389;-80
2022/03/04 02:56:32;;;;;;;23.40;11.48;;;1.60;99.90;;;;;;5050812;28;20569;-80
2022/03/04 02:58:57;;;;;;;21.63;11.25;;;1.60;99.90;;;;;;5050784;28;20052;-80
2022/03/04 03:01:24;;;;;;;23.52;11.40;;;1.60;99.90;;;;;;5050688;28;20047;-80
2022/03/04 03:03:50;;;;;;;23.20;10.80;;;1.60;99.90;;;;;;5033783;28;20043;-80
2022/03/04 03:06:16;;;;;;;19.55;10.43;;;1.60;99.90;;;;;;5050478;28;20044;-80
2022/03/04 03:08:41;;;;;;;21.45;10.32;;;1.60;99.90;;;;;;5050580;28;20040;-80
2022/03/04 03:11:07;;;;;;;21.48;10.20;;;1.50;99.90;;;;;;5050499;28;20048;-80
2022/03/04 03:13:33;;;;;;;21.23;10.82;;;1.50;99.90;;;;;;5050217;28;20068;-80
2022/03/04 03:15:58;;;;;;;19.98;11.05;;;1.50;99.90;;;;;;5050454;28;20045;-80
2022/03/04 03:18:24;;;;;;;21.75;11.05;;;1.40;99.90;;;;;;5050447;28;20068;-80
2022/03/04 03:20:49;;;;;;;21.70;11.75;;;1.40;99.90;;;;;;5050354;28;20041;-80
2022/03/04 03:23:15;;;;;;;24.77;12.45;;;1.40;99.90;;;;;;5050048;28;20127;-80
2022/03/04 03:25:41;;;;;;;23.70;12.63;;;1.40;99.90;;;;;;5050379;28;20127;-80
2022/03/04 03:28:07;;;;;;;22.50;11.82;;;1.30;99.90;;;;;;5050328;28;20076;-80
2022/03/04 03:30:32;;;;;;;22.40;12.98;;;1.30;99.90;;;;;;5050341;28;20045;-80
2022/03/04 03:32:58;;;;;;;22.80;12.05;;;1.30;99.90;;;;;;5049979;28;20037;-80
2022/03/04 03:35:24;;;;;;;25.60;13.45;;;1.30;99.90;;;;;;5049754;28;20044;-80
2022/03/04 03:37:49;;;;;;;21.50;12.15;;;1.20;99.90;;;;;;5050268;28;20033;-80
2022/03/04 03:40:15;;;;;;;24.55;13.27;;;1.20;99.90;;;;;;5049873;28;20183;-80
2022/03/04 03:42:41;;;;;;;25.45;12.40;;;1.20;99.90;;;;;;5050039;28;20416;-80
2022/03/04 03:45:09;;;;;;;22.05;12.30;;;1.30;99.90;;;;;;5050138;28;20044;-80
2022/03/04 03:47:34;;;;;;;21.98;12.05;;;1.20;99.90;;;;;;5050281;28;20513;-80
2022/03/04 03:50:01;;;;;;;26.60;13.05;;;1.20;99.90;;;;;;5033466;28;20033;-80
2022/03/04 03:52:26;;;;;;;21.17;12.40;;;1.20;99.90;;;;;;5033152;28;20047;-80
2022/03/04 03:54:52;;;;;;;20.98;12.00;;;1.20;99.90;;;;;;5033438;28;20041;-80
2022/03/04 03:57:18;;;;;;;23.23;13.32;;;1.20;99.90;;;;;;5050362;28;20091;-80
2022/03/04 03:59:44;;;;;;;27.15;12.60;;;1.20;99.90;;;;;;5050180;28;20490;-80
2022/03/04 04:02:09;;;;;;;22.70;11.77;;;1.20;99.90;;;;;;5049352;28;20059;-80
2022/03/04 04:04:35;;;;;;;22.70;12.40;;;1.10;99.90;;;;;;5050060;28;20099;-80
2022/03/04 04:07:05;;;;;;;22.45;12.45;;;1.10;99.90;;;;;;5049958;28;20048;-80
2022/03/04 04:09:31;;;;;;;22.77;12.30;;;1.10;99.90;;;;;;5049974;28;20075;-80
2022/03/04 04:11:58;;;;;;;23.92;13.23;;;1.10;99.90;;;;;;5049418;28;20036;-80
2022/03/04 04:14:24;;;;;;;21.67;12.73;;;1.10;99.90;;;;;;5050337;28;20119;-80
2022/03/04 04:16:50;;;;;;;21.58;12.13;;;1.10;99.90;;;;;;5033368;28;20509;-80
2022/03/04 04:19:15;;;;;;;21.25;11.85;;;1.00;99.90;;;;;;5033339;28;20136;-80
2022/03/04 04:21:41;;;;;;;23.45;11.70;;;1.00;99.90;;;;;;5049640;28;20108;-80
2022/03/04 04:24:07;;;;;;;20.95;11.43;;;1.00;99.90;;;;;;5033084;28;20123;-80
2022/03/04 04:26:32;;;;;;;21.10;11.90;;;1.00;99.90;;;;;;5049914;28;20037;-80
2022/03/04 04:28:58;;;;;;;22.30;12.35;;;1.00;99.90;;;;;;5050140;28;20037;-80
2022/03/04 04:31:24;;;;;;;22.65;13.70;;;1.00;99.90;;;;;;5033482;28;20512;-80
2022/03/04 04:33:50;;;;;;;21.98;12.02;;;1.00;99.90;;;;;;5049452;28;20083;-80
2022/03/04 04:36:16;;;;;;;24.55;13.02;;;1.00;99.90;;;;;;5049752;28;20091;-80
2022/03/04 04:38:42;;;;;;;23.23;12.30;;;1.00;99.90;;;;;;5049197;28;20047;-80
2022/03/04 04:41:08;;;;;;;28.25;14.77;;;1.00;99.90;;;;;;5049998;28;20036;-80
2022/03/04 04:43:34;;;;;;;21.90;11.80;;;1.10;99.90;;;;;;5049297;28;20077;-80
2022/03/04 04:46:00;;;;;;;21.23;12.40;;;1.00;99.90;;;;;;5049660;28;20033;-80
2022/03/04 04:48:25;;;;;;;21.67;12.35;;;1.00;99.90;;;;;;5051854;28;20041;-80
2022/03/04 04:50:51;;;;;;;22.38;12.27;;;1.10;99.90;;;;;;5053299;28;20091;-80
2022/03/04 04:53:16;;;;;;;26.35;14.00;;;1.10;99.90;;;;;;5053078;28;20049;-80
2022/03/04 04:55:42;;;;;;;23.63;13.52;;;1.10;99.90;;;;;;5053056;28;20044;-79
2022/03/04 04:58:08;;;;;;;26.20;12.45;;;1.10;99.90;;;;;;5036414;28;20071;-79
2022/03/04 05:00:34;;;;;;;27.80;14.25;;;1.10;99.90;;;;;;5053318;28;20047;-79
2022/03/04 05:03:00;;;;;;;28.02;14.60;;;1.10;99.90;;;;;;5035807;28;20087;-79
2022/03/04 05:05:25;;;;;;;23.23;12.93;;;1.10;99.90;;;;;;5052947;28;20083;-80
2022/03/04 05:07:51;;;;;;;23.88;12.43;;;1.10;99.90;;;;;;5051218;28;20398;-79
2022/03/04 05:10:17;;;;;;;23.80;12.57;;;1.10;99.90;;;;;;5055795;28;20509;-77
2022/03/04 05:12:42;;;;;;;25.05;14.57;;;1.10;99.90;;;;;;5052723;28;20033;-79
2022/03/04 05:15:08;;;;;;;24.50;13.38;;;1.10;99.90;;;;;;5063381;28;20143;-79
2022/03/04 05:17:34;;;;;;;24.35;13.18;;;1.20;99.90;;;;;;5052545;28;20052;-79
2022/03/04 05:19:59;;;;;;;24.92;13.60;;;1.20;99.90;;;;;;5052387;28;20040;-79
2022/03/04 05:22:25;;;;;;;26.02;12.52;;;1.20;99.90;;;;;;5052085;28;20048;-80
2022/03/04 05:24:51;;;;;;;26.48;13.88;;;1.20;99.90;;;;;;5035360;28;20032;-80
2022/03/04 05:27:16;;;;;;;26.77;13.02;;;1.20;99.90;;;;;;5052070;28;20045;-80
2022/03/04 05:29:42;;;;;;;24.75;13.85;;;1.20;99.90;;;;;;5035602;28;20041;-80
2022/03/04 05:32:07;;;;;;;25.65;14.27;;;1.20;99.90;;;;;;5051370;28;20494;-80
2022/03/04 05:34:33;;;;;;;23.27;13.93;;;1.20;99.90;;;;;;5051722;28;20041;-80
2022/03/04 05:36:59;;;;;;;25.13;13.93;;;1.20;99.90;;;;;;5051968;28;20464;-80
2022/03/04 05:39:25;;;;;;;27.95;15.70;;;1.20;99.90;;;;;;5051696;28;20048;-80
2022/03/04 05:41:50;;;;;;;26.60;14.75;;;1.20;99.90;;;;;;5052242;28;20119;-80
2022/03/04 05:44:16;;;;;;;26.33;14.77;;;1.20;99.90;;;;;;5070366;28;20066;-79
2022/03/04 05:46:42;;;;;;;26.23;14.80;;;1.20;99.90;;;;;;5054584;28;20072;-80
2022/03/04 05:49:07;;;;;;;27.98;14.68;;;1.20;99.90;;;;;;5071454;28;20033;-80
2022/03/04 05:51:34;;;;;;;27.42;15.48;;;1.30;99.90;;;;;;5055025;28;20078;-80
2022/03/04 05:54:00;;;;;;;29.75;14.43;;;1.30;99.90;;;;;;5071528;28;20040;-80
2022/03/04 05:56:26;;;;;;;25.60;13.48;;;1.30;99.90;;;;;;5071585;28;20101;-80
2022/03/04 05:58:52;;;;;;;25.98;13.85;;;1.20;99.90;;;;;;5071535;28;20043;-80
2022/03/04 06:01:17;;;;;;;28.63;15.85;;;1.20;99.90;;;;;;5054455;28;20195;-80
2022/03/04 06:03:43;;;;;;;26.17;14.60;;;1.20;99.90;;;;;;5067255;28;20068;-80
2022/03/04 06:06:13;;;;;;;26.75;15.40;;;1.20;99.90;;;;;;5034613;28;20083;-80
2022/03/04 06:08:39;;;;;;;27.83;14.57;;;1.20;99.90;;;;;;5051214;28;20043;-80
2022/03/04 06:11:09;;;;;;;27.23;14.73;;;1.20;99.90;;;;;;5034952;28;20078;-80
2022/03/04 06:13:36;;;;;;;28.85;16.42;;;1.20;99.90;;;;;;5051270;28;20492;-80
2022/03/04 06:16:02;;;;;;;29.65;15.52;;;1.20;99.90;;;;;;5051735;28;20049;-80
2022/03/04 06:18:28;;;;;;;26.95;15.15;;;1.20;99.90;;;;;;5051457;28;20128;-80
2022/03/04 06:20:53;;;;;;;27.45;15.18;;;1.20;99.90;;;;;;5051286;28;20119;-80
2022/03/04 06:23:19;;;;;;;31.95;18.33;;;1.20;99.90;;;;;;5050453;28;20041;-80
2022/03/04 06:25:45;;;;;;;32.05;18.30;;;1.20;99.90;;;;;;5050691;28;20045;-80
2022/03/04 06:28:11;;;;;;;28.75;16.95;;;1.20;99.90;;;;;;5050867;28;20033;-80
2022/03/04 06:30:37;;;;;;;32.42;18.02;;;1.10;99.90;;;;;;5051199;28;20063;-80
2022/03/04 06:35:49;;;;;;;36.53;18.85;;;1.10;99.90;;;;;;5051045;28;20057;-80
2022/03/04 06:38:14;;;;;;;31.42;17.23;;;1.10;99.90;;;;;;5051020;28;20120;-80
2022/03/04 06:40:40;;;;;;;31.00;17.10;;;1.10;99.90;;;;;;5034348;28;20037;-80
2022/03/04 06:43:06;;;;;;;39.08;19.98;;;1.10;99.90;;;;;;5050093;28;20142;-80
2022/03/04 06:45:32;;;;;;;33.15;18.70;;;1.10;99.90;;;;;;5050378;28;20045;-80
2022/03/04 06:47:58;;;;;;;31.55;17.60;;;1.10;99.90;;;;;;5050491;28;20128;-80
2022/03/04 06:50:24;;;;;;;31.90;17.15;;;1.10;99.90;;;;;;5034540;28;20041;-80
2022/03/04 06:52:53;;;;;;;28.88;16.30;;;1.10;99.90;;;;;;5050650;28;20032;-79
2022/03/04 06:55:19;;;;;;;31.45;16.48;;;1.10;99.90;;;;;;5050745;28;20111;-80
2022/03/04 06:57:46;;;;;;;29.52;15.48;;;1.00;99.90;;;;;;5048947;28;20523;-80
2022/03/04 07:00:13;;;;;;;33.95;17.25;;;1.10;99.90;;;;;;5032559;28;20091;-79
2022/03/04 07:02:39;;;;;;;32.95;17.80;;;1.10;99.90;;;;;;5050063;28;20040;-80
2022/03/04 07:05:09;;;;;;;32.17;17.13;;;1.10;99.90;;;;;;5050460;28;20033;-80
2022/03/04 07:07:35;;;;;;;34.25;18.08;;;1.10;99.90;;;;;;5050978;28;20071;-80
2022/03/04 07:10:03;;;;;;;31.83;16.90;;;1.10;99.90;;;;;;5049833;28;20045;-80
2022/03/04 07:12:28;;;;;;;30.83;16.20;;;1.10;99.90;;;;;;5048076;28;20033;-80
2022/03/04 07:14:54;;;;;;;35.15;17.88;;;1.20;99.90;;;;;;5049686;28;20143;-80
2022/03/04 07:17:21;;;;;;;34.42;18.60;;;1.20;99.90;;;;;;5050208;28;20103;-80
2022/03/04 07:19:46;;;;;;;36.15;18.92;;;1.20;99.90;;;;;;5050180;28;20048;-80
2022/03/04 07:22:12;;;;;;;37.15;19.75;;;1.20;99.90;;;;;;5049380;28;20414;-80
2022/03/04 07:24:38;;;;;;;33.72;16.92;;;1.20;99.90;;;;;;5033763;28;20044;-80
2022/03/04 07:27:03;;;;;;;34.10;18.25;;;1.30;99.90;;;;;;5050119;28;20506;-80
2022/03/04 07:29:29;;;;;;;34.15;18.05;;;1.30;99.90;;;;;;5050255;28;20033;-80
2022/03/04 07:31:55;;;;;;;30.65;17.50;;;1.30;99.90;;;;;;5050010;28;20037;-80
2022/03/04 07:34:22;;;;;;;31.35;18.35;;;1.30;99.90;;;;;;5049424;28;20490;-80
2022/03/04 07:36:48;;;;;;;31.80;17.45;;;1.30;99.90;;;;;;5050033;28;20055;-80
2022/03/04 07:39:14;;;;;;;33.75;18.80;;;1.30;99.90;;;;;;5050101;28;20049;-80
2022/03/04 07:41:40;;;;;;;31.33;18.00;;;1.30;99.90;;;;;;5049614;28;20123;-80
2022/03/04 07:44:05;;;;;;;32.50;16.77;;;1.30;99.90;;;;;;5049369;28;20041;-80
2022/03/04 07:46:31;;;;;;;32.08;18.25;;;1.30;99.90;;;;;;5049828;28;20041;-79
2022/03/04 07:48:57;;;;;;;31.50;17.25;;;1.30;99.90;;;;;;5049780;28;20056;-80
2022/03/04 07:51:23;;;;;;;35.80;20.13;;;1.30;99.90;;;;;;5050141;28;20041;-80
2022/03/04 07:53:49;;;;;;;35.60;17.52;;;1.40;99.90;;;;;;5049336;28;20053;-80
2022/03/04 07:56:14;;;;;;;35.67;19.13;;;1.40;99.90;;;;;;5049389;28;20083;-80
2022/03/04 07:58:40;;;;;;;34.85;19.10;;;1.40;99.90;;;;;;5049766;28;20041;-80
2022/03/04 08:01:05;;;;;;;31.20;17.38;;;1.50;99.90;;;;;;5049696;28;20417;-80
2022/03/04 08:03:31;;;;;;;34.15;17.63;;;1.50;99.90;;;;;;5049735;28;20106;-80
2022/03/04 08:05:57;;;;;;;36.85;19.40;;;1.60;99.90;;;;;;5049791;28;20123;-79
2022/03/04 08:08:22;;;;;;;38.33;21.65;;;1.60;99.90;;;;;;5049607;28;20037;-80
2022/03/04 08:10:48;;;;;;;39.90;19.95;;;1.60;99.90;;;;;;5049632;28;20041;-80
2022/03/04 08:13:14;;;;;;;40.97;20.42;;;1.70;99.90;;;;;;5049075;28;20037;-80
2022/03/04 08:15:39;;;;;;;37.17;21.17;;;1.70;99.90;;;;;;5048812;28;20043;-80
2022/03/04 08:18:05;;;;;;;42.95;22.83;;;1.70;99.90;;;;;;5049177;28;20044;-80
2022/03/04 08:20:32;;;;;;;39.30;21.35;;;1.70;99.90;;;;;;5049589;28;20080;-79
2022/03/04 08:22:58;;;;;;;41.00;20.63;;;1.70;99.90;;;;;;5035543;28;20037;-80
2022/03/04 08:25:24;;;;;;;37.40;20.23;;;1.70;99.90;;;;;;5037035;28;20044;-80
2022/03/04 08:27:51;;;;;;;35.97;19.50;;;1.80;99.90;;;;;;5053627;28;20041;-80
2022/03/04 08:30:16;;;;;;;40.85;22.02;;;1.80;99.90;;;;;;5052918;28;20044;-80
2022/03/04 08:32:42;;;;;;;42.45;20.40;;;1.90;99.90;;;;;;5052681;28;20037;-80
2022/03/04 08:35:08;;;;;;;40.80;20.08;;;1.90;99.90;;;;;;5052673;28;20083;-80
2022/03/04 08:37:34;;;;;;;37.58;19.63;;;1.90;99.90;;;;;;5052691;28;20040;-80
2022/03/04 08:40:01;;;;;;;37.70;20.63;;;1.90;99.90;;;;;;5053069;28;20478;-80
2022/03/04 08:42:27;;;;;;;41.83;21.17;;;1.90;99.90;;;;;;5036416;28;20040;-80
2022/03/04 08:44:54;;;;;;;40.83;21.15;;;1.90;99.90;;;;;;5053608;28;20072;-80
2022/03/04 08:47:20;;;;;;;39.72;20.55;;;2.00;99.90;;;;;;5052981;28;20477;-80
2022/03/04 08:49:45;;;;;;;39.63;21.15;;;2.00;99.90;;;;;;5036483;28;20037;-80
2022/03/04 08:52:11;;;;;;;41.50;19.55;;;2.00;99.90;;;;;;5052720;28;20048;-80
2022/03/04 08:54:37;;;;;;;38.70;20.17;;;2.10;99.90;;;;;;5052950;28;20045;-80
2022/03/04 08:57:03;;;;;;;41.60;20.38;;;2.20;99.90;;;;;;5052589;28;20056;-80
2022/03/04 08:59:29;;;;;;;37.53;19.50;;;2.20;99.90;;;;;;5053976;28;20080;-80
2022/03/04 09:01:56;;;;;;;38.03;19.92;;;2.30;99.90;;;;;;5052880;28;20076;-80
2022/03/04 09:04:22;;;;;;;38.67;21.52;;;2.40;99.90;;;;;;5052694;28;20079;-80
2022/03/04 09:06:48;;;;;;;36.15;19.80;;;2.40;99.90;;;;;;5052965;28;20076;-80
2022/03/04 09:09:14;;;;;;;38.83;20.35;;;2.50;99.90;;;;;;5035708;28;20073;-80
2022/03/04 09:11:41;;;;;;;37.10;20.27;;;2.60;99.90;;;;;;5035732;28;20025;-80
2022/03/04 09:14:07;;;;;;;34.72;19.15;;;2.60;99.90;;;;;;5051135;28;20490;-80
2022/03/04 09:16:33;;;;;;;35.35;19.52;;;2.70;99.90;;;;;;5050558;28;20037;-80
2022/03/04 09:18:59;;;;;;;35.97;19.63;;;2.80;99.90;;;;;;5051635;28;20119;-80
2022/03/04 09:21:26;;;;;;;36.58;20.25;;;2.90;99.90;;;;;;5035705;28;20053;-80
2022/03/04 09:23:52;;;;;;;36.63;20.45;;;2.90;99.90;;;;;;5052512;28;20064;-80
2022/03/04 09:26:17;;;;;;;35.33;19.25;;;3.00;99.90;;;;;;5052476;28;20045;-80
2022/03/04 09:28:43;;;;;;;39.70;20.05;;;3.00;99.90;;;;;;5052736;28;20051;-80
2022/03/04 09:31:09;;;;;;;35.17;20.27;;;3.10;99.90;;;;;;5052534;28;20033;-81
2022/03/04 09:33:35;;;;;;;33.85;19.52;;;3.10;99.90;;;;;;5034707;28;20048;-81
2022/03/04 09:36:01;;;;;;;35.45;19.27;;;3.10;99.90;;;;;;5052613;28;20060;-81
2022/03/04 09:38:27;;;;;;;36.63;20.33;;;3.10;99.90;;;;;;5052591;28;20045;-80
2022/03/04 09:40:53;;;;;;;37.78;20.50;;;3.10;99.90;;;;;;5051779;28;20465;-80
2022/03/04 09:43:21;;;;;;;35.70;19.80;;;3.20;99.90;;;;;;5051384;28;20457;-80
2022/03/04 09:45:47;;;;;;;37.95;22.77;;;3.20;99.90;;;;;;5052366;28;20478;-81
2022/03/04 09:48:14;;;;;;;38.58;20.73;;;3.30;99.90;;;;;;5051879;28;20426;-81
2022/03/04 09:50:42;;;;;;;37.97;20.30;;;3.40;99.90;;;;;;5052206;28;20127;-80
2022/03/04 09:53:11;;;;;;;36.13;19.45;;;3.40;99.90;;;;;;5049705;28;20560;-80
2022/03/04 09:55:37;;;;;;;36.58;20.50;;;3.50;99.90;;;;;;5050887;28;20045;-81
2022/03/04 09:58:08;;;;;;;38.65;21.65;;;3.60;99.90;;;;;;5051353;28;20044;-81
2022/03/04 10:00:33;;;;;;;35.08;20.80;;;3.70;99.90;;;;;;5051603;28;20056;-81
2022/03/04 10:02:59;;;;;;;33.60;18.60;;;3.80;99.90;;;;;;5051668;28;20417;-81
2022/03/04 10:05:24;;;;;;;35.65;20.38;;;3.80;99.90;;;;;;5051455;28;20037;-81
2022/03/04 10:07:50;;;;;;;37.53;21.45;;;3.80;99.90;;;;;;5051846;28;20081;-81
2022/03/04 10:10:22;;;;;;;37.15;21.58;;;3.90;99.90;;;;;;5035088;28;20041;-80
2022/03/04 10:12:55;;;;;;;36.50;21.42;;;4.00;99.90;;;;;;5051357;28;20498;-81
2022/03/04 10:15:21;;;;;;;;;;;4.10;99.90;;;;;;5051034;28;20033;-80
2022/03/04 10:17:58;;;;;;;32.53;18.48;;;4.20;99.90;;;;;;5055277;28;20325;-76
2022/03/04 10:20:42;;;;;;;31.83;17.70;;;4.30;99.90;;;;;;5054456;28;20564;-80
2022/03/04 10:23:14;;;;;;;31.10;18.20;;;4.40;99.90;;;;;;5052226;28;20048;-81
2022/03/04 10:25:43;;;;;;;30.93;17.17;;;4.50;99.90;;;;;;5036052;28;20433;-79
2022/03/04 10:28:10;;;;;;;34.13;19.50;;;4.40;99.90;;;;;;5051760;28;20271;-80
2022/03/04 10:30:36;;;;;;;29.58;18.75;;;4.40;99.90;;;;;;5035084;28;20033;-80
2022/03/04 10:33:09;;;;;;;31.63;17.70;;;4.40;99.90;;;;;;5050906;28;20033;-81
2022/03/04 10:35:35;;;;;;;;;;;4.60;99.90;;;;;;5051376;28;20063;-81
2022/03/04 10:38:04;;;;;;;27.38;15.65;;;4.70;99.90;;;;;;5034238;28;19964;-81
2022/03/04 10:40:43;;;;;;;28.38;17.23;;;4.80;99.90;;;;;;5050577;28;20091;-81
2022/03/04 10:43:10;;;;;;;28.63;17.33;;;5.00;99.90;;;;;;5050665;28;20045;-81
2022/03/04 10:45:43;;;;;;;28.27;16.80;;;5.20;99.90;;;;;;5050357;28;20037;-81
2022/03/04 10:48:12;;;;;;;27.95;17.42;;;5.40;99.90;;;;;;5051036;28;20075;-81
2022/03/04 10:50:59;;;;;;;28.35;17.35;;;5.60;99.90;;;;;;5050947;28;20035;-81
2022/03/04 10:53:30;;;;;;;31.08;16.95;;;5.80;99.90;;;;;;5050525;28;20084;-81
2022/03/04 10:55:56;;;;;;;26.08;16.45;;;5.90;99.90;;;;;;5050689;28;20049;-80
2022/03/04 10:58:34;;;;;;;23.98;15.02;;;6.00;99.80;;;;;;5050435;28;20040;-80
2022/03/04 11:01:09;;;;;;;25.85;17.17;;;6.10;99.40;;;;;;5050341;28;20095;-79
2022/03/04 11:03:36;;;;;;;27.42;17.25;;;6.30;99.40;;;;;;5061870;28;20044;-80
2022/03/04 11:06:04;;;;;;;25.75;16.67;;;6.40;99.10;;;;;;5070720;28;20127;-80
2022/03/04 11:08:30;;;;;;;27.08;17.05;;;6.60;98.70;;;;;;5054074;28;20036;-80
2022/03/04 11:10:57;;;;;;;26.85;16.42;;;6.70;98.70;;;;;;5054074;28;20036;-81
2022/03/04 11:13:24;;;;;;;27.77;18.25;;;6.90;98.40;;;;;;5070203;28;20036;-80
2022/03/04 11:15:51;;;;;;;25.45;16.70;;;7.00;97.80;;;;;;5069296;28;20044;-81
2022/03/04 11:18:19;;;;;;;25.10;16.38;;;7.10;97.30;;;;;;5070047;28;20051;-80
2022/03/04 11:20:48;;;;;;;24.80;15.75;;;7.20;97.30;;;;;;5067656;28;20041;-81
2022/03/04 11:23:31;;;;;;;22.52;14.63;;;7.50;97.30;;;;;;5049366;28;20064;-80
2022/03/04 11:26:02;;;;;;;21.85;14.88;;;7.70;96.50;;;;;;5050350;28;20099;-80
2022/03/04 11:28:49;;;;;;;22.35;13.98;;;7.80;96.20;;;;;;5050388;28;20041;-80
2022/03/04 11:31:20;;;;;;;21.30;13.98;;;8.00;95.00;;;;;;5050560;28;20041;-80
2022/03/04 11:33:51;;;;;;;22.50;13.90;;;8.10;94.50;;;;;;5033447;28;20068;-80
2022/03/04 11:36:19;;;;;;;20.05;13.55;;;8.30;94.20;;;;;;5049431;28;20095;-81
2022/03/04 11:38:44;;;;;;;21.38;14.02;;;8.50;93.80;;;;;;5048954;28;20040;-80
2022/03/04 11:41:11;;;;;;;20.73;13.38;;;8.70;93.30;;;;;;5049276;28;20040;-81
2022/03/04 11:43:49;;;;;;;20.52;14.07;;;8.80;92.40;;;;;;5049290;28;20084;-81
2022/03/04 11:46:22;;;;;;;20.48;13.55;;;8.90;91.70;;;;;;5048881;28;20483;-81
2022/03/04 11:49:08;;;;;;;20.92;12.90;;;9.00;90.30;;;;;;5049141;28;20037;-81
2022/03/04 11:51:33;;;;;;;19.45;13.18;;;9.10;90.20;;;;;;5048967;28;20037;-81
2022/03/04 11:54:25;;;;;;;20.27;12.32;;;9.20;90.10;;;;;;5032045;28;20566;-81
2022/03/04 11:56:52;;;;;;;20.35;14.30;;;9.40;86.60;;;;;;5034319;28;20036;-81
2022/03/04 11:59:19;;;;;;;18.40;12.48;;;9.50;88.10;;;;;;5052972;28;20425;-81
2022/03/04 12:01:45;;;;;;;18.92;12.75;;;9.70;86.30;;;;;;5036864;28;20043;-81
2022/03/04 12:04:16;;;;;;;19.25;13.70;;;9.90;84.30;;;;;;5054023;28;20036;-81
2022/03/04 12:06:43;;;;;;;20.10;12.90;;;10.00;82.70;;;;;;5054181;28;20537;-81
2022/03/04 12:09:46;;;;;;;17.77;12.43;;;10.20;82.40;;;;;;5053639;28;20075;-81
2022/03/04 12:12:21;;;;;;;17.63;11.50;;;10.40;78.60;;;;;;4974074;28;20046;-80
2022/03/04 12:15:05;;;;;;;20.17;13.50;;;10.50;78.60;;;;;;4975561;28;20121;-81
2022/03/04 12:17:51;;;;;;;20.33;12.80;;;10.70;78.10;;;;;;4976715;28;20042;-81
2022/03/04 12:20:26;;;;;;;18.70;13.15;;;10.90;76.30;;;;;;4993350;28;20049;-81
2022/03/04 12:22:59;;;;;;;20.88;12.82;;;11.10;77.50;;;;;;4976717;28;20054;-80
2022/03/04 12:25:53;;;;;;;17.85;12.60;;;11.30;75.40;;;;;;4989881;28;20054;-80
2022/03/04 12:28:22;;;;;;;;;;;11.60;74.10;;;;;;4976666;28;20050;-78
2022/03/04 12:31:03;;;;;;;16.92;12.00;;;11.90;74.30;;;;;;4976284;28;19918;-79
2022/03/04 12:33:38;;;;;;;19.27;12.35;;;12.00;72.10;;;;;;4976360;28;20046;-80
2022/03/04 12:36:05;;;;;;;18.00;13.10;;;12.20;70.90;;;;;;4976743;28;20530;-80
2022/03/04 12:38:51;;;;;;;17.23;12.65;;;12.50;71.30;;;;;;4976565;28;20050;-81
2022/03/04 12:41:20;;;;;;;17.92;13.82;;;12.80;69.90;;;;;;4976123;28;20424;-80